Time;durP1;ratioP1;P1;durP2;ratioP2;P2;SDS_P1;SDS_P2;PMS_P1;PMS_P2;Temp;Humidity;BMP_temperature;BMP_pressure;BME280_temperature;BME280_humidity;BME280_pressure;Samples;Min_cycle;Max_cycle;Signal;HPM_P1;HPM_P2
2023/06/02 00:01:05;;;;;;;8.63;2.43;;;;;;;;;;5001288;28;20216;-86
2023/06/02 00:03:32;;;;;;;7.43;3.10;;;;;;;;;;4999362;28;20247;-81
2023/06/02 00:06:05;;;;;;;8.53;2.60;;;;;;;;;;4990131;28;20279;-82
2023/06/02 00:08:36;;;;;;;6.07;2.53;;;;;;;;;;4992201;28;20228;-83
2023/06/02 00:11:09;;;;;;;5.23;2.73;;;;;;;;;;5014012;28;20297;-82
2023/06/02 00:13:37;;;;;;;8.87;3.00;;;;;;;;;;4965303;28;20276;-85
2023/06/02 00:16:08;;;;;;;7.17;2.60;;;;;;;;;;4951937;28;20260;-85
2023/06/02 00:18:37;;;;;;;6.47;2.60;;;;;;;;;;4990327;28;20232;-82
2023/06/02 00:21:06;;;;;;;6.30;2.80;;;;;;;;;;5001094;28;20212;-82
2023/06/02 00:23:32;;;;;;;8.03;2.90;;;;;;;;;;5011938;28;20225;-83
2023/06/02 00:26:00;;;;;;;7.27;2.40;;;;;;;;;;5004018;28;20519;-83
2023/06/02 00:28:26;;;;;;;4.03;2.67;;;;;;;;;;5018674;28;20630;-83
2023/06/02 00:30:54;;;;;;;10.03;2.77;;;;;;;;;;5027865;28;20236;-83
2023/06/02 00:33:20;;;;;;;11.40;3.20;;;;;;;;;;4979929;28;20718;-84
2023/06/02 00:35:45;;;;;;;6.70;2.53;;;;;;;;;;4977143;28;20252;-86
2023/06/02 00:38:11;;;;;;;9.17;3.33;;;;;;;;;;4965883;28;20257;-83
2023/06/02 00:40:37;;;;;;;10.77;3.20;;;;;;;;;;4982519;28;20214;-80
2023/06/02 00:43:07;;;;;;;8.70;2.90;;;;;;;;;;4968206;28;20217;-83
2023/06/02 00:45:33;;;;;;;9.20;3.60;;;;;;;;;;4976482;28;20225;-83
2023/06/02 00:48:01;;;;;;;9.20;2.87;;;;;;;;;;4980504;28;20684;-84
2023/06/02 00:50:27;;;;;;;8.77;2.87;;;;;;;;;;4983640;28;20217;-85
2023/06/02 00:52:58;;;;;;;6.20;3.33;;;;;;;;;;5006866;28;20230;-82
2023/06/02 00:55:25;;;;;;;7.00;3.00;;;;;;;;;;5016371;28;20236;-82
2023/06/02 00:57:51;;;;;;;8.57;2.90;;;;;;;;;;4991967;28;20680;-86
2023/06/02 01:00:19;;;;;;;9.27;2.90;;;;;;;;;;4964543;28;20243;-82
2023/06/02 01:02:45;;;;;;;7.50;3.00;;;;;;;;;;5010999;28;20585;-84
2023/06/02 01:05:14;;;;;;;7.57;3.07;;;;;;;;;;5000822;28;20232;-85
2023/06/02 01:07:44;;;;;;;9.57;3.47;;;;;;;;;;5000576;28;20232;-81
2023/06/02 01:10:10;;;;;;;6.70;3.23;;;;;;;;;;4969230;28;20214;-84
2023/06/02 01:12:36;;;;;;;7.20;3.17;;;;;;;;;;4986913;28;20769;-81
2023/06/02 01:15:03;;;;;;;10.80;3.20;;;;;;;;;;4982387;28;20231;-83
2023/06/02 01:17:30;;;;;;;7.80;3.43;;;;;;;;;;4988897;28;20323;-84
2023/06/02 01:20:01;;;;;;;7.53;2.87;;;;;;;;;;4981722;28;20279;-81
2023/06/02 01:22:30;;;;;;;9.03;3.27;;;;;;;;;;4984158;28;20251;-82
2023/06/02 01:25:00;;;;;;;9.73;3.30;;;;;;;;;;4971191;28;20229;-82
2023/06/02 01:27:29;;;;;;;9.13;3.40;;;;;;;;;;4983167;28;20232;-84
2023/06/02 01:29:55;;;;;;;10.17;3.27;;;;;;;;;;4966102;28;20228;-83
2023/06/02 01:32:24;;;;;;;8.93;3.30;;;;;;;;;;4977454;28;20312;-81
2023/06/02 01:34:49;;;;;;;8.27;3.37;;;;;;;;;;5018569;28;20225;-81
2023/06/02 01:37:19;;;;;;;6.00;3.20;;;;;;;;;;5022208;28;20247;-81
2023/06/02 01:39:47;;;;;;;10.07;3.47;;;;;;;;;;5010892;28;20686;-84
2023/06/02 01:42:15;;;;;;;7.17;3.30;;;;;;;;;;5036239;28;20243;-83
2023/06/02 01:44:41;;;;;;;9.50;3.50;;;;;;;;;;4999851;28;20232;-83
2023/06/02 01:47:09;;;;;;;9.73;3.70;;;;;;;;;;4999026;28;20420;-84
2023/06/02 01:49:37;;;;;;;9.90;3.63;;;;;;;;;;5025685;28;20201;-82
2023/06/02 01:52:05;;;;;;;8.40;3.50;;;;;;;;;;4989719;28;20236;-82
2023/06/02 01:54:30;;;;;;;9.27;3.93;;;;;;;;;;4981357;28;20674;-83
2023/06/02 01:57:02;;;;;;;7.90;3.47;;;;;;;;;;4983010;28;20259;-85
2023/06/02 01:59:28;;;;;;;8.23;3.50;;;;;;;;;;4981355;28;20696;-86
2023/06/02 02:01:55;;;;;;;10.87;4.03;;;;;;;;;;4966123;28;20225;-85
2023/06/02 02:04:22;;;;;;;10.60;4.10;;;;;;;;;;4998095;28;20241;-85
2023/06/02 02:06:49;;;;;;;7.03;3.30;;;;;;;;;;5005336;28;20220;-88
2023/06/02 02:09:17;;;;;;;8.73;3.63;;;;;;;;;;5006536;28;20209;-81
2023/06/02 02:11:43;;;;;;;9.27;3.50;;;;;;;;;;4999374;28;20215;-81
2023/06/02 02:14:13;;;;;;;8.40;3.67;;;;;;;;;;5032114;28;20228;-82
2023/06/02 02:16:44;;;;;;;9.83;3.70;;;;;;;;;;4996287;28;20764;-86
2023/06/02 02:19:12;;;;;;;9.67;3.90;;;;;;;;;;4977881;28;20243;-84
2023/06/02 02:21:38;;;;;;;9.50;3.67;;;;;;;;;;4985134;28;20741;-82
2023/06/02 02:24:05;;;;;;;9.60;3.60;;;;;;;;;;4995635;28;20601;-84
2023/06/02 02:26:31;;;;;;;8.37;3.73;;;;;;;;;;4990544;28;20233;-85
2023/06/02 02:28:59;;;;;;;12.37;4.20;;;;;;;;;;4985206;28;20284;-84
2023/06/02 02:31:24;;;;;;;17.60;4.50;;;;;;;;;;4979539;28;20283;-82
2023/06/02 02:33:50;;;;;;;11.23;3.70;;;;;;;;;;4993614;28;20222;-83
2023/06/02 02:36:17;;;;;;;10.67;3.90;;;;;;;;;;5011600;28;20809;-83
2023/06/02 02:38:45;;;;;;;13.30;4.87;;;;;;;;;;4975771;28;20214;-83
2023/06/02 02:41:13;;;;;;;8.10;3.93;;;;;;;;;;4981812;28;20260;-83
2023/06/02 02:43:39;;;;;;;9.00;4.13;;;;;;;;;;5001078;28;20238;-83
2023/06/02 02:46:06;;;;;;;9.33;3.77;;;;;;;;;;4994078;28;20225;-82
2023/06/02 02:48:36;;;;;;;8.73;4.63;;;;;;;;;;4996441;28;20236;-83
2023/06/02 02:51:05;;;;;;;10.67;4.00;;;;;;;;;;4976891;28;20213;-82
2023/06/02 02:53:31;;;;;;;12.27;4.97;;;;;;;;;;4994201;28;20231;-84
2023/06/02 02:55:58;;;;;;;8.57;4.10;;;;;;;;;;4977873;28;20328;-82
2023/06/02 02:58:26;;;;;;;12.87;4.83;;;;;;;;;;4977887;28;20213;-85
2023/06/02 03:00:52;;;;;;;11.00;5.03;;;;;;;;;;4961264;28;20221;-83
2023/06/02 03:03:23;;;;;;;8.90;4.70;;;;;;;;;;4976454;28;20296;-85
2023/06/02 03:05:54;;;;;;;11.53;4.37;;;;;;;;;;4973672;28;20221;-84
2023/06/02 03:08:22;;;;;;;15.93;4.50;;;;;;;;;;4978457;28;20237;-83
2023/06/02 03:10:48;;;;;;;13.67;4.67;;;;;;;;;;4999987;28;20596;-85
2023/06/02 03:13:14;;;;;;;8.17;4.10;;;;;;;;;;4978688;28;20218;-81
2023/06/02 03:15:40;;;;;;;9.37;4.40;;;;;;;;;;5000358;28;20225;-82
2023/06/02 03:18:08;;;;;;;12.10;4.00;;;;;;;;;;4992643;28;20224;-82
2023/06/02 03:20:36;;;;;;;11.33;4.87;;;;;;;;;;4997615;28;20324;-84
2023/06/02 03:23:05;;;;;;;13.00;4.67;;;;;;;;;;4976058;28;20363;-84
2023/06/02 03:25:31;;;;;;;9.57;4.57;;;;;;;;;;4984674;28;20308;-84
2023/06/02 03:27:56;;;;;;;14.07;4.50;;;;;;;;;;4978522;28;20221;-81
2023/06/02 03:30:23;;;;;;;11.73;4.60;;;;;;;;;;5000862;28;20224;-82
2023/06/02 03:32:54;;;;;;;9.80;4.77;;;;;;;;;;4984869;28;20229;-84
2023/06/02 03:35:22;;;;;;;11.27;4.57;;;;;;;;;;4981050;28;20250;-82
2023/06/02 03:37:50;;;;;;;12.37;4.57;;;;;;;;;;4980589;28;20224;-81
2023/06/02 03:40:16;;;;;;;11.23;4.80;;;;;;;;;;4979107;28;21045;-82
2023/06/02 03:42:42;;;;;;;10.03;4.53;;;;;;;;;;4978515;28;20295;-83
2023/06/02 03:45:11;;;;;;;12.17;4.37;;;;;;;;;;4981235;28;20224;-82
2023/06/02 03:47:40;;;;;;;10.43;4.63;;;;;;;;;;4975236;28;20236;-82
2023/06/02 03:50:07;;;;;;;9.80;4.80;;;;;;;;;;4978828;28;20224;-83
2023/06/02 03:52:37;;;;;;;11.80;4.77;;;;;;;;;;4997166;28;20217;-81
2023/06/02 03:55:06;;;;;;;10.73;4.73;;;;;;;;;;4992230;28;20229;-83
2023/06/02 03:57:32;;;;;;;15.10;4.80;;;;;;;;;;4995848;28;20232;-82
2023/06/02 03:59:59;;;;;;;10.10;4.03;;;;;;;;;;4963176;28;20225;-82
2023/06/02 04:02:26;;;;;;;14.57;4.43;;;;;;;;;;4950762;28;20298;-81
2023/06/02 04:04:52;;;;;;;13.63;4.83;;;;;;;;;;4975271;28;20368;-80
2023/06/02 04:07:20;;;;;;;11.03;4.43;;;;;;;;;;4998037;28;20221;-81
2023/06/02 04:09:49;;;;;;;10.80;5.20;;;;;;;;;;4986632;28;20227;-83
2023/06/02 04:12:15;;;;;;;10.70;4.40;;;;;;;;;;5004180;28;20217;-84
2023/06/02 04:14:40;;;;;;;14.87;4.57;;;;;;;;;;4965679;28;20588;-81
2023/06/02 04:17:07;;;;;;;12.73;4.60;;;;;;;;;;4978665;28;20228;-81
2023/06/02 04:19:35;;;;;;;12.93;4.60;;;;;;;;;;4997464;28;20225;-82
2023/06/02 04:22:02;;;;;;;12.60;4.23;;;;;;;;;;4999576;28;20590;-82
2023/06/02 04:24:30;;;;;;;13.80;4.77;;;;;;;;;;4979209;28;20232;-82
2023/06/02 04:26:58;;;;;;;11.83;4.60;;;;;;;;;;5016413;28;20375;-83
2023/06/02 04:29:25;;;;;;;16.03;4.87;;;;;;;;;;4979446;28;20220;-82
2023/06/02 04:31:53;;;;;;;8.27;4.50;;;;;;;;;;4983147;28;20225;-81
2023/06/02 04:34:28;;;;;;;14.97;5.37;;;;;;;;;;5014582;28;20220;-85
2023/06/02 04:36:54;;;;;;;12.80;4.70;;;;;;;;;;4988327;28;20211;-82
2023/06/02 04:39:21;;;;;;;10.37;4.57;;;;;;;;;;4994457;28;20253;-81
2023/06/02 04:41:51;;;;;;;12.90;4.90;;;;;;;;;;5003086;28;20213;-81
2023/06/02 04:44:18;;;;;;;14.03;4.70;;;;;;;;;;4998262;28;20260;-81
2023/06/02 04:46:45;;;;;;;10.00;4.50;;;;;;;;;;5014880;28;20411;-85
2023/06/02 04:49:14;;;;;;;10.67;4.80;;;;;;;;;;5009296;28;20328;-87
2023/06/02 04:51:39;;;;;;;11.80;4.80;;;;;;;;;;4998345;28;20216;-83
2023/06/02 04:54:08;;;;;;;9.53;4.40;;;;;;;;;;5012511;28;20319;-86
2023/06/02 04:56:34;;;;;;;10.27;4.77;;;;;;;;;;4964640;28;20236;-84
2023/06/02 04:59:00;;;;;;;10.40;4.40;;;;;;;;;;4961234;28;20248;-85
2023/06/02 05:01:28;;;;;;;10.87;4.80;;;;;;;;;;4982021;28;20762;-82
2023/06/02 05:03:56;;;;;;;12.03;4.60;;;;;;;;;;5004386;28;20227;-84
2023/06/02 05:06:22;;;;;;;13.80;5.23;;;;;;;;;;4991210;28;20225;-85
2023/06/02 05:08:48;;;;;;;14.10;5.10;;;;;;;;;;4991197;28;20236;-84
2023/06/02 05:11:13;;;;;;;9.23;4.47;;;;;;;;;;4968152;28;20214;-84
2023/06/02 05:13:46;;;;;;;12.27;4.53;;;;;;;;;;4998192;28;20235;-85
2023/06/02 05:20:05;;;;;;;11.07;4.60;;;;;;;;;;4961174;28;20231;-82
2023/06/02 05:22:53;;;;;;;12.00;4.83;;;;;;;;;;4976391;28;20228;-82
2023/06/02 05:25:40;;;;;;;12.83;4.80;;;;;;;;;;4963674;28;20229;-83
2023/06/02 05:32:05;;;;;;;;;;;;;;;;;;;;;
2023/06/02 05:34:47;;;;;;;14.53;5.03;;;;;;;;;;4972440;28;20801;-82
2023/06/02 05:37:24;;;;;;;12.47;5.10;;;;;;;;;;4953404;28;20236;-84
2023/06/02 05:39:55;;;;;;;9.33;4.43;;;;;;;;;;4990833;28;20217;-86
2023/06/02 05:42:24;;;;;;;12.75;5.00;;;;;;;;;;4963214;28;20228;-81
2023/06/02 05:44:51;;;;;;;9.43;4.60;;;;;;;;;;5019419;28;20224;-80
2023/06/02 05:47:17;;;;;;;10.73;5.23;;;;;;;;;;4981732;28;20220;-82
2023/06/02 05:49:42;;;;;;;14.13;5.33;;;;;;;;;;4991816;28;20724;-82
2023/06/02 05:52:08;;;;;;;9.13;5.13;;;;;;;;;;4993571;28;20235;-82
2023/06/02 05:54:34;;;;;;;12.73;5.20;;;;;;;;;;5002715;28;20229;-83
2023/06/02 05:57:00;;;;;;;9.73;5.35;;;;;;;;;;5008422;28;20214;-81
2023/06/02 05:59:29;;;;;;;13.03;4.97;;;;;;;;;;4999415;28;20213;-83
2023/06/02 06:01:55;;;;;;;9.47;4.40;;;;;;;;;;5000784;28;20228;-83
2023/06/02 06:04:21;;;;;;;6.85;4.63;;;;;;;;;;4983026;28;20229;-81
2023/06/02 06:06:47;;;;;;;12.18;4.80;;;;;;;;;;5011760;28;20442;-86
2023/06/02 06:09:14;;;;;;;10.83;4.90;;;;;;;;;;4968864;28;20217;-83
2023/06/02 06:11:39;;;;;;;11.07;5.28;;;;;;;;;;5012714;28;20223;-83
2023/06/02 06:14:07;;;;;;;12.55;4.88;;;;;;;;;;4999336;28;20590;-83
2023/06/02 06:16:34;;;;;;;10.27;4.70;;;;;;;;;;4988572;28;20220;-85
2023/06/02 06:19:02;;;;;;;9.63;4.73;;;;;;;;;;4988368;28;20228;-84
2023/06/02 06:21:28;;;;;;;9.57;4.47;;;;;;;;;;4979823;28;20237;-81
2023/06/02 06:23:54;;;;;;;8.73;4.63;;;;;;;;;;4965139;28;20222;-86
2023/06/02 06:26:23;;;;;;;10.98;4.63;;;;;;;;;;4967588;28;20229;-86
2023/06/02 06:28:49;;;;;;;10.45;4.18;;;;;;;;;;5006114;28;20229;-85
2023/06/02 06:31:14;;;;;;;11.47;4.60;;;;;;;;;;4993723;28;20220;-82
2023/06/02 06:33:41;;;;;;;11.85;4.60;;;;;;;;;;4996430;28;20220;-82
2023/06/02 06:36:09;;;;;;;10.00;5.07;;;;;;;;;;4978608;28;20226;-85
2023/06/02 06:38:38;;;;;;;8.77;4.20;;;;;;;;;;4981999;28;20205;-82
2023/06/02 06:41:08;;;;;;;8.05;4.50;;;;;;;;;;4976583;28;20217;-85
2023/06/02 06:43:38;;;;;;;8.50;4.35;;;;;;;;;;4978216;28;20225;-84
2023/06/02 06:46:12;;;;;;;8.35;4.10;;;;;;;;;;4962954;28;20252;-81
2023/06/02 06:48:38;;;;;;;9.23;3.88;;;;;;;;;;4967132;28;20682;-83
2023/06/02 06:51:04;;;;;;;10.70;4.05;;;;;;;;;;4978047;28;20217;-82
2023/06/02 06:53:29;;;;;;;8.80;3.92;;;;;;;;;;4964633;28;20244;-84
2023/06/02 06:55:55;;;;;;;10.13;4.15;;;;;;;;;;4981414;28;20248;-82
2023/06/02 06:58:22;;;;;;;9.27;4.30;;;;;;;;;;4991395;28;20235;-83
2023/06/02 07:00:48;;;;;;;7.57;4.15;;;;;;;;;;5014045;28;20224;-83
2023/06/02 07:03:16;;;;;;;7.43;4.20;;;;;;;;;;4996927;28;20210;-83
2023/06/02 07:05:43;;;;;;;8.13;4.15;;;;;;;;;;5023004;28;20232;-81
2023/06/02 07:08:08;;;;;;;11.23;4.07;;;;;;;;;;5002309;28;20319;-84
2023/06/02 07:10:34;;;;;;;6.97;3.63;;;;;;;;;;5017405;28;20234;-84
2023/06/02 07:13:02;;;;;;;7.13;3.65;;;;;;;;;;5002414;28;20243;-84
2023/06/02 07:15:27;;;;;;;6.70;3.78;;;;;;;;;;4983500;28;20205;-83
2023/06/02 07:17:55;;;;;;;5.90;3.53;;;;;;;;;;4984234;28;20239;-85
2023/06/02 07:20:21;;;;;;;6.10;3.60;;;;;;;;;;5007667;28;20208;-84
2023/06/02 07:22:53;;;;;;;7.65;3.80;;;;;;;;;;4978350;28;20248;-86
2023/06/02 07:25:21;;;;;;;9.32;4.10;;;;;;;;;;4991858;28;20225;-83
2023/06/02 07:27:47;;;;;;;7.70;3.78;;;;;;;;;;5017697;28;20599;-81
2023/06/02 07:30:12;;;;;;;7.20;3.00;;;;;;;;;;5042503;28;20231;-86
2023/06/02 07:32:40;;;;;;;9.20;3.70;;;;;;;;;;4975109;28;20221;-84
2023/06/02 07:35:06;;;;;;;8.55;3.72;;;;;;;;;;4990910;28;20232;-83
2023/06/02 07:37:34;;;;;;;8.07;3.90;;;;;;;;;;5009560;28;20251;-84
2023/06/02 07:40:05;;;;;;;9.55;3.67;;;;;;;;;;4991168;28;20205;-84
2023/06/02 07:42:30;;;;;;;5.97;3.40;;;;;;;;;;4997358;28;20242;-82
2023/06/02 07:44:56;;;;;;;5.80;3.30;;;;;;;;;;4996635;28;20717;-85
2023/06/02 07:47:24;;;;;;;7.57;3.38;;;;;;;;;;5016135;28;20221;-85
2023/06/02 07:49:52;;;;;;;9.10;3.67;;;;;;;;;;4998934;28;20235;-85
2023/06/02 07:52:18;;;;;;;10.20;3.28;;;;;;;;;;4998626;28;20221;-86
2023/06/02 07:59:24;;;;;;;;;;;;;;;;;;;;;
2023/06/02 08:03:02;;;;;;;;;;;;;;;;;;;;;
2023/06/02 08:06:03;;;;;;;;;;;;;;;;;;;;;
2023/06/02 08:13:17;;;;;;;;;;;;;;;;;;;;;
2023/06/02 08:16:48;;;;;;;;;;;;;;;;;;;;;
2023/06/02 08:27:44;;;;;;;;;;;;;;;;;;;;;
2023/06/02 08:30:52;;;;;;;5.07;3.28;;;;;;;;;;4911028;29;20266;-86
2023/06/02 08:37:32;;;;;;;;;;;;;;;;;;;;;
2023/06/02 08:41:08;;;;;;;;;;;;;;;;;;;;;
2023/06/02 08:44:02;;;;;;;5.55;2.92;;;;;;;;;;4885574;29;20318;-84
2023/06/02 08:50:01;;;;;;;;;;;;;;;;;;;;;
2023/06/02 08:52:50;;;;;;;3.78;3.03;;;;;;;;;;4865042;28;20231;-83
2023/06/02 08:59:13;;;;;;;6.13;2.90;;;;;;;;;;4895749;29;20229;-84
2023/06/02 09:02:24;;;;;;;4.30;2.95;;;;;;;;;;4899697;28;20692;-83
2023/06/02 09:05:52;;;;;;;4.88;2.80;;;;;;;;;;4897756;28;20275;-85
2023/06/02 09:09:11;;;;;;;;;;;;;;;;;;;;;
2023/06/02 09:12:47;;;;;;;;;;;;;;;;;;;;;
2023/06/02 09:16:36;;;;;;;;;;;;;;;;;;;;;
2023/06/02 09:20:28;;;;;;;;;;;;;;;;;;;;;
2023/06/02 09:23:53;;;;;;;;;;;;;;;;;;;;;
2023/06/02 09:34:06;;;;;;;;;;;;;;;;;;;;;
2023/06/02 09:37:12;;;;;;;3.97;2.30;;;;;;;;;;4956947;28;20233;-82
2023/06/02 09:40:08;;;;;;;4.60;2.78;;;;;;;;;;4990821;28;20299;-84
2023/06/02 09:43:16;;;;;;;7.82;2.80;;;;;;;;;;4984880;28;20216;-81
2023/06/02 09:46:06;;;;;;;;;;;;;;;;;;;;;
2023/06/02 09:48:49;;;;;;;;;;;;;;;;;;;;;
2023/06/02 09:52:18;;;;;;;;;;;;;;;;;;;;;
2023/06/02 09:55:05;;;;;;;;;;;;;;;;;;;;;
2023/06/02 09:57:50;;;;;;;4.10;2.35;;;;;;;;;;4978141;28;20333;-81
2023/06/02 10:00:25;;;;;;;3.60;2.22;;;;;;;;;;4968880;28;20311;-81
2023/06/02 10:03:10;;;;;;;;;;;;;;;;;;;;;
2023/06/02 10:06:07;;;;;;;;;;;;;;;;;;;;;
2023/06/02 10:12:05;;;;;;;;;;;;;;;;;;;;;
2023/06/02 10:15:32;;;;;;;3.35;2.20;;;;;;;;;;5003774;28;21342;-83
2023/06/02 10:18:43;;;;;;;3.72;2.30;;;;;;;;;;5004916;28;20221;-82
2023/06/02 10:21:40;;;;;;;4.90;2.22;;;;;;;;;;4973758;28;20225;-81
2023/06/02 10:24:52;;;;;;;;;;;;;;;;;;;;;
2023/06/02 10:27:44;;;;;;;4.20;2.45;;;;;;;;;;4966382;28;21113;-84
2023/06/02 10:30:14;;;;;;;4.78;2.22;;;;;;;;;;4969186;28;20224;-81
2023/06/02 10:32:59;;;;;;;5.80;2.60;;;;;;;;;;5014320;28;20229;-84
2023/06/02 10:36:08;;;;;;;5.72;2.80;;;;;;;;;;4967871;28;20521;-86
2023/06/02 10:38:55;;;;;;;;;;;;;;;;;;;;;
2023/06/02 10:42:06;;;;;;;4.70;3.33;;;;;;;;;;4989409;28;20423;-82
2023/06/02 10:44:57;;;;;;;7.78;3.28;;;;;;;;;;5017372;28;20899;-83
2023/06/02 10:48:01;;;;;;;5.90;3.10;;;;;;;;;;4965301;28;20233;-82
2023/06/02 10:50:57;;;;;;;3.92;3.00;;;;;;;;;;5018286;28;20343;-85
2023/06/02 10:54:02;;;;;;;4.63;3.15;;;;;;;;;;4976668;28;20990;-84
2023/06/02 10:57:07;;;;;;;3.28;2.80;;;;;;;;;;4999647;28;20380;-83
2023/06/02 10:59:44;;;;;;;5.68;3.25;;;;;;;;;;4967043;28;20209;-83
2023/06/02 11:02:15;;;;;;;4.32;3.15;;;;;;;;;;4976785;28;20606;-83
2023/06/02 11:04:44;;;;;;;4.18;2.78;;;;;;;;;;4987207;28;20310;-81
2023/06/02 11:07:42;;;;;;;5.25;3.17;;;;;;;;;;4993154;28;20232;-83
2023/06/02 11:10:42;;;;;;;3.90;2.85;;;;;;;;;;5010025;28;20300;-83
2023/06/02 11:13:18;;;;;;;4.13;2.90;;;;;;;;;;5012758;28;20225;-84
2023/06/02 11:16:00;;;;;;;4.53;2.70;;;;;;;;;;5017299;28;20232;-81
2023/06/02 11:18:40;;;;;;;5.13;2.53;;;;;;;;;;5026747;28;20304;-83
2023/06/02 11:21:21;;;;;;;3.22;2.90;;;;;;;;;;4996148;28;20637;-83
2023/06/02 11:23:49;;;;;;;4.68;2.60;;;;;;;;;;4962052;28;20257;-84
2023/06/02 11:26:19;;;;;;;4.60;2.58;;;;;;;;;;4967248;28;20224;-85
2023/06/02 11:28:45;;;;;;;4.38;2.75;;;;;;;;;;4964916;28;20279;-83
2023/06/02 11:31:19;;;;;;;6.68;2.90;;;;;;;;;;4975626;28;20225;-82
2023/06/02 11:33:52;;;;;;;3.88;2.60;;;;;;;;;;5020960;28;20220;-83
2023/06/02 11:36:39;;;;;;;5.88;2.78;;;;;;;;;;4962377;28;20860;-82
2023/06/02 11:39:06;;;;;;;3.58;2.75;;;;;;;;;;5009894;28;20216;-83
2023/06/02 11:41:32;;;;;;;3.95;2.70;;;;;;;;;;4970028;28;20275;-84
2023/06/02 11:44:06;;;;;;;3.92;2.50;;;;;;;;;;4978979;28;20591;-82
2023/06/02 11:46:31;;;;;;;3.75;2.63;;;;;;;;;;4991477;28;20304;-83
2023/06/02 11:49:05;;;;;;;4.22;2.67;;;;;;;;;;5009642;28;20212;-81
2023/06/02 11:51:33;;;;;;;3.13;2.33;;;;;;;;;;4998695;28;20229;-82
2023/06/02 11:53:59;;;;;;;3.08;2.20;;;;;;;;;;5009934;28;20231;-80
2023/06/02 11:56:25;;;;;;;3.13;2.40;;;;;;;;;;5007458;28;20273;-84
2023/06/02 11:59:00;;;;;;;3.70;2.47;;;;;;;;;;4975564;28;20217;-84
2023/06/02 12:01:34;;;;;;;4.30;2.53;;;;;;;;;;4986515;28;20220;-83
2023/06/02 12:04:04;;;;;;;3.70;2.85;;;;;;;;;;4998320;28;20224;-83
2023/06/02 12:06:40;;;;;;;3.63;2.33;;;;;;;;;;4972303;28;20240;-84
2023/06/02 12:09:11;;;;;;;2.97;2.40;;;;;;;;;;4978828;28;20596;-85
2023/06/02 12:11:39;;;;;;;3.58;2.50;;;;;;;;;;5025351;28;20229;-85
2023/06/02 12:14:09;;;;;;;4.18;2.45;;;;;;;;;;4965976;28;20218;-85
2023/06/02 12:16:40;;;;;;;4.63;2.63;;;;;;;;;;4994761;28;20248;-84
2023/06/02 12:19:20;;;;;;;3.20;2.15;;;;;;;;;;4993411;28;20221;-84
2023/06/02 12:21:47;;;;;;;4.20;2.28;;;;;;;;;;4993740;28;20232;-84
2023/06/02 12:24:28;;;;;;;2.75;2.38;;;;;;;;;;4982555;28;20226;-85
2023/06/02 12:26:57;;;;;;;3.70;2.65;;;;;;;;;;5005188;28;20260;-83
2023/06/02 12:29:23;;;;;;;3.88;2.70;;;;;;;;;;4996278;28;21949;-83
2023/06/02 12:31:59;;;;;;;8.15;2.85;;;;;;;;;;4964030;28;20224;-83
2023/06/02 12:34:24;;;;;;;4.53;2.55;;;;;;;;;;4997013;28;20628;-82
2023/06/02 12:36:58;;;;;;;3.65;2.30;;;;;;;;;;4981916;28;20238;-84
2023/06/02 12:39:25;;;;;;;3.25;2.55;;;;;;;;;;4985720;28;20233;-81
2023/06/02 12:41:56;;;;;;;4.70;2.10;;;;;;;;;;5012539;28;20220;-83
2023/06/02 12:44:22;;;;;;;2.67;2.30;;;;;;;;;;4990461;28;20636;-82
2023/06/02 12:46:58;;;;;;;5.20;2.40;;;;;;;;;;4983362;28;20233;-81
2023/06/02 12:49:23;;;;;;;3.42;2.30;;;;;;;;;;4984977;28;20277;-84
2023/06/02 12:51:52;;;;;;;3.80;2.70;;;;;;;;;;4998865;28;20225;-84
2023/06/02 12:54:17;;;;;;;3.33;2.30;;;;;;;;;;4974093;28;20267;-84
2023/06/02 12:56:43;;;;;;;3.33;2.20;;;;;;;;;;4983199;28;20224;-83
2023/06/02 12:59:11;;;;;;;4.53;2.25;;;;;;;;;;4987005;28;20226;-86
2023/06/02 13:01:39;;;;;;;3.92;2.13;;;;;;;;;;5006836;28;20270;-85
2023/06/02 13:04:07;;;;;;;3.65;2.03;;;;;;;;;;4971714;28;20612;-85
2023/06/02 13:06:38;;;;;;;3.58;2.35;;;;;;;;;;4984915;28;20239;-84
2023/06/02 13:09:08;;;;;;;3.22;2.20;;;;;;;;;;4981142;28;20371;-83
2023/06/02 13:11:36;;;;;;;3.08;2.10;;;;;;;;;;4996190;28;20224;-84
2023/06/02 13:14:07;;;;;;;4.15;2.13;;;;;;;;;;5014877;28;20219;-84
2023/06/02 13:16:38;;;;;;;2.55;1.98;;;;;;;;;;5013761;28;20239;-82
2023/06/02 13:19:05;;;;;;;4.75;2.20;;;;;;;;;;4999578;28;20224;-84
2023/06/02 13:21:31;;;;;;;3.53;2.05;;;;;;;;;;5002174;28;20587;-81
2023/06/02 13:24:04;;;;;;;3.08;2.00;;;;;;;;;;5002258;28;20274;-83
2023/06/02 13:26:29;;;;;;;2.58;1.88;;;;;;;;;;4990113;28;20225;-83
2023/06/02 13:28:55;;;;;;;3.00;1.85;;;;;;;;;;4982933;28;20309;-83
2023/06/02 13:31:23;;;;;;;2.75;1.80;;;;;;;;;;4983580;28;20229;-86
2023/06/02 13:33:51;;;;;;;4.45;1.95;;;;;;;;;;4999710;28;20228;-85
2023/06/02 13:36:19;;;;;;;7.18;4.30;;;;;;;;;;4986077;28;20231;-84
2023/06/02 13:38:48;;;;;;;3.13;1.77;;;;;;;;;;4986133;28;20252;-83
2023/06/02 13:41:14;;;;;;;1.80;1.58;;;;;;;;;;5012820;28;20235;-83
2023/06/02 13:43:39;;;;;;;2.08;1.50;;;;;;;;;;4988094;28;20335;-85
2023/06/02 13:46:09;;;;;;;3.58;2.00;;;;;;;;;;5001843;28;20681;-83
2023/06/02 13:48:37;;;;;;;3.20;1.80;;;;;;;;;;5005943;28;20228;-83
2023/06/02 13:51:03;;;;;;;2.70;2.00;;;;;;;;;;4993001;28;20241;-81
2023/06/02 13:53:28;;;;;;;1.77;1.50;;;;;;;;;;5018734;28;20284;-84
2023/06/02 13:55:56;;;;;;;1.80;1.65;;;;;;;;;;4996411;28;20224;-84
2023/06/02 13:58:29;;;;;;;4.63;1.80;;;;;;;;;;5003697;28;20221;-87
2023/06/02 14:00:54;;;;;;;4.20;1.83;;;;;;;;;;5036743;28;20224;-76
2023/06/02 14:03:22;;;;;;;1.50;1.40;;;;;;;;;;5025658;28;22180;-82
2023/06/02 14:05:50;;;;;;;4.35;1.42;;;;;;;;;;4984669;28;20225;-82
2023/06/02 14:08:18;;;;;;;2.40;1.40;;;;;;;;;;5015477;28;20213;-78
2023/06/02 14:10:43;;;;;;;1.42;1.30;;;;;;;;;;5000832;28;20221;-78
2023/06/02 14:13:12;;;;;;;1.48;1.35;;;;;;;;;;5014759;28;20212;-78
2023/06/02 14:15:38;;;;;;;3.45;1.60;;;;;;;;;;4999884;28;20235;-78
2023/06/02 14:18:05;;;;;;;2.60;1.20;;;;;;;;;;5002956;28;20243;-79
2023/06/02 14:20:31;;;;;;;2.22;1.30;;;;;;;;;;4999546;28;20672;-80
2023/06/02 14:22:58;;;;;;;2.05;1.30;;;;;;;;;;4998085;28;20224;-79
2023/06/02 14:25:25;;;;;;;2.75;1.33;;;;;;;;;;4996492;28;20216;-78
2023/06/02 14:27:53;;;;;;;2.85;1.15;;;;;;;;;;4999534;28;20303;-79
2023/06/02 14:30:18;;;;;;;1.23;1.13;;;;;;;;;;4998876;28;20223;-80
2023/06/02 14:32:46;;;;;;;1.58;1.10;;;;;;;;;;4989804;28;20792;-82
2023/06/02 14:35:14;;;;;;;2.05;1.33;;;;;;;;;;4995609;28;20224;-82
2023/06/02 14:37:42;;;;;;;1.92;1.20;;;;;;;;;;5016637;28;20221;-84
2023/06/02 14:40:08;;;;;;;1.85;1.30;;;;;;;;;;5001692;28;20213;-86
2023/06/02 14:42:36;;;;;;;1.90;1.40;;;;;;;;;;5020439;28;20229;-86
2023/06/02 14:45:02;;;;;;;3.78;1.38;;;;;;;;;;4982532;28;20225;-84
2023/06/02 14:47:33;;;;;;;0.80;0.80;;;;;;;;;;4995918;28;20226;-87
2023/06/02 14:49:59;;;;;;;1.85;1.10;;;;;;;;;;4984236;28;20261;-84
2023/06/02 14:52:25;;;;;;;1.65;1.10;;;;;;;;;;4978913;28;20251;-86
2023/06/02 14:54:53;;;;;;;1.63;1.08;;;;;;;;;;4985411;28;20221;-85
2023/06/02 14:57:21;;;;;;;1.85;1.13;;;;;;;;;;5000747;28;20262;-85
2023/06/02 14:59:48;;;;;;;1.05;0.93;;;;;;;;;;4999461;28;20300;-79
2023/06/02 15:02:16;;;;;;;9.10;2.42;;;;;;;;;;4979432;28;20276;-81
2023/06/02 15:04:41;;;;;;;6.55;2.10;;;;;;;;;;5007694;28;20228;-82
2023/06/02 15:07:11;;;;;;;1.92;1.23;;;;;;;;;;4976001;28;20724;-83
2023/06/02 15:09:39;;;;;;;1.10;1.00;;;;;;;;;;4980936;28;20228;-82
2023/06/02 15:12:05;;;;;;;1.10;0.90;;;;;;;;;;4996274;28;20213;-83
2023/06/02 15:14:31;;;;;;;1.30;1.20;;;;;;;;;;4978600;28;20312;-83
2023/06/02 15:16:56;;;;;;;1.70;1.30;;;;;;;;;;5000322;28;20216;-85
2023/06/02 15:19:22;;;;;;;1.52;1.05;;;;;;;;;;4982522;28;20622;-83
2023/06/02 15:21:47;;;;;;;1.30;1.15;;;;;;;;;;4984225;28;20237;-82
2023/06/02 15:24:13;;;;;;;3.15;1.20;;;;;;;;;;4970583;28;20693;-83
2023/06/02 15:26:39;;;;;;;3.13;0.98;;;;;;;;;;4987850;28;20232;-84
2023/06/02 15:29:05;;;;;;;1.88;1.00;;;;;;;;;;4996395;28;20300;-83
2023/06/02 15:31:40;;;;;;;1.73;1.10;;;;;;;;;;4991661;28;20223;-83
2023/06/02 15:34:09;;;;;;;1.17;1.05;;;;;;;;;;5029829;28;20230;-86
2023/06/02 15:36:35;;;;;;;1.27;1.00;;;;;;;;;;5003122;28;20217;-85
2023/06/02 15:39:03;;;;;;;1.73;1.00;;;;;;;;;;5003498;28;20220;-82
2023/06/02 15:41:28;;;;;;;1.17;1.00;;;;;;;;;;4993796;28;20280;-85
2023/06/02 15:43:56;;;;;;;1.45;1.20;;;;;;;;;;4982517;28;20224;-89
2023/06/02 15:46:23;;;;;;;1.52;1.00;;;;;;;;;;4995605;28;20712;-84
2023/06/02 15:48:49;;;;;;;2.40;1.20;;;;;;;;;;5006686;28;20232;-84
2023/06/02 15:51:17;;;;;;;1.25;1.00;;;;;;;;;;4981974;28;20221;-83
2023/06/02 15:53:45;;;;;;;1.80;1.23;;;;;;;;;;5010340;28;20709;-86
2023/06/02 15:56:11;;;;;;;1.50;1.00;;;;;;;;;;5031615;28;20294;-86
2023/06/02 15:58:36;;;;;;;3.35;1.40;;;;;;;;;;5017583;28;20229;-85
2023/06/02 16:01:08;;;;;;;2.88;1.17;;;;;;;;;;5017893;28;20205;-85
2023/06/02 16:03:36;;;;;;;1.35;0.95;;;;;;;;;;4978544;28;20233;-83
2023/06/02 16:06:01;;;;;;;1.65;1.10;;;;;;;;;;4963573;28;20233;-84
2023/06/02 16:08:27;;;;;;;1.88;0.98;;;;;;;;;;4990630;28;20232;-87
2023/06/02 16:10:52;;;;;;;2.53;1.10;;;;;;;;;;4982283;28;20229;-86
2023/06/02 16:13:18;;;;;;;5.88;1.17;;;;;;;;;;4990149;28;20224;-85
2023/06/02 16:15:43;;;;;;;2.95;1.02;;;;;;;;;;4980963;28;20221;-85
2023/06/02 16:18:09;;;;;;;2.45;0.93;;;;;;;;;;5001977;28;20209;-85
2023/06/02 16:20:35;;;;;;;2.45;1.00;;;;;;;;;;4973729;28;20249;-83
2023/06/02 16:23:02;;;;;;;1.30;1.02;;;;;;;;;;4983581;28;20230;-83